sensor_id;sensor_type;location;lat;lon;timestamp;P1;durP1;ratioP1;P2;durP2;ratioP2
30647;SDS011;17683;53.360;9.736;2023-07-31T00:01:45;9.30;;;2.95;;
30647;SDS011;17683;53.360;9.736;2023-07-31T00:04:10;8.10;;;2.47;;
30647;SDS011;17683;53.360;9.736;2023-07-31T00:06:36;8.27;;;2.20;;
30647;SDS011;17683;53.360;9.736;2023-07-31T00:09:02;7.35;;;2.15;;
30647;SDS011;17683;53.360;9.736;2023-07-31T00:11:27;7.18;;;2.45;;
30647;SDS011;17683;53.360;9.736;2023-07-31T00:13:53;7.80;;;2.10;;
30647;SDS011;17683;53.360;9.736;2023-07-31T00:16:19;5.10;;;2.30;;
30647;SDS011;17683;53.360;9.736;2023-07-31T00:18:45;6.43;;;1.70;;
30647;SDS011;17683;53.360;9.736;2023-07-31T00:21:10;7.05;;;2.40;;
30647;SDS011;17683;53.360;9.736;2023-07-31T00:23:36;9.63;;;2.33;;
30647;SDS011;17683;53.360;9.736;2023-07-31T00:26:02;4.82;;;2.42;;
30647;SDS011;17683;53.360;9.736;2023-07-31T00:28:27;6.03;;;2.10;;
30647;SDS011;17683;53.360;9.736;2023-07-31T00:30:53;6.57;;;2.40;;
30647;SDS011;17683;53.360;9.736;2023-07-31T00:33:19;7.93;;;1.95;;
30647;SDS011;17683;53.360;9.736;2023-07-31T00:35:45;11.85;;;3.15;;
30647;SDS011;17683;53.360;9.736;2023-07-31T00:38:10;4.28;;;2.10;;
30647;SDS011;17683;53.360;9.736;2023-07-31T00:40:36;9.05;;;2.45;;
30647;SDS011;17683;53.360;9.736;2023-07-31T00:43:02;5.63;;;2.55;;
30647;SDS011;17683;53.360;9.736;2023-07-31T00:45:28;11.23;;;2.50;;
30647;SDS011;17683;53.360;9.736;2023-07-31T00:47:55;7.53;;;2.53;;
30647;SDS011;17683;53.360;9.736;2023-07-31T00:50:22;8.30;;;2.28;;
30647;SDS011;17683;53.360;9.736;2023-07-31T00:52:49;10.57;;;2.35;;
30647;SDS011;17683;53.360;9.736;2023-07-31T00:55:15;8.65;;;2.47;;
30647;SDS011;17683;53.360;9.736;2023-07-31T00:57:41;6.53;;;3.13;;
30647;SDS011;17683;53.360;9.736;2023-07-31T01:00:08;9.90;;;2.42;;
30647;SDS011;17683;53.360;9.736;2023-07-31T01:02:35;6.47;;;2.22;;
30647;SDS011;17683;53.360;9.736;2023-07-31T01:05:01;10.88;;;2.40;;
30647;SDS011;17683;53.360;9.736;2023-07-31T01:10:37;7.63;;;2.25;;
30647;SDS011;17683;53.360;9.736;2023-07-31T01:13:10;7.47;;;3.05;;
30647;SDS011;17683;53.360;9.736;2023-07-31T01:15:36;5.15;;;2.67;;
30647;SDS011;17683;53.360;9.736;2023-07-31T01:18:02;8.27;;;2.47;;
30647;SDS011;17683;53.360;9.736;2023-07-31T01:20:28;5.40;;;2.50;;
30647;SDS011;17683;53.360;9.736;2023-07-31T01:31:26;6.90;;;2.63;;
30647;SDS011;17683;53.360;9.736;2023-07-31T01:33:56;6.00;;;2.15;;
30647;SDS011;17683;53.360;9.736;2023-07-31T01:36:25;5.25;;;2.58;;
30647;SDS011;17683;53.360;9.736;2023-07-31T01:38:52;9.18;;;2.63;;
30647;SDS011;17683;53.360;9.736;2023-07-31T01:41:18;9.80;;;2.85;;
30647;SDS011;17683;53.360;9.736;2023-07-31T01:43:44;7.20;;;2.83;;
30647;SDS011;17683;53.360;9.736;2023-07-31T01:46:11;4.13;;;2.58;;
30647;SDS011;17683;53.360;9.736;2023-07-31T01:48:36;10.05;;;2.42;;
30647;SDS011;17683;53.360;9.736;2023-07-31T01:51:02;4.68;;;2.47;;
30647;SDS011;17683;53.360;9.736;2023-07-31T01:53:28;6.55;;;2.22;;
30647;SDS011;17683;53.360;9.736;2023-07-31T01:55:56;6.90;;;2.83;;
30647;SDS011;17683;53.360;9.736;2023-07-31T01:58:22;10.80;;;2.88;;
30647;SDS011;17683;53.360;9.736;2023-07-31T02:00:47;10.25;;;2.78;;
30647;SDS011;17683;53.360;9.736;2023-07-31T02:03:13;7.68;;;2.53;;
30647;SDS011;17683;53.360;9.736;2023-07-31T02:05:45;9.05;;;2.65;;
30647;SDS011;17683;53.360;9.736;2023-07-31T02:08:15;6.70;;;3.08;;
30647;SDS011;17683;53.360;9.736;2023-07-31T02:10:41;5.75;;;2.92;;
30647;SDS011;17683;53.360;9.736;2023-07-31T02:13:07;10.25;;;2.50;;
30647;SDS011;17683;53.360;9.736;2023-07-31T02:15:33;8.63;;;2.67;;
30647;SDS011;17683;53.360;9.736;2023-07-31T02:17:59;5.57;;;2.70;;
30647;SDS011;17683;53.360;9.736;2023-07-31T02:20:25;11.20;;;3.55;;
30647;SDS011;17683;53.360;9.736;2023-07-31T02:22:51;9.10;;;2.63;;
30647;SDS011;17683;53.360;9.736;2023-07-31T02:25:16;5.95;;;2.10;;
30647;SDS011;17683;53.360;9.736;2023-07-31T02:27:42;4.97;;;2.85;;
30647;SDS011;17683;53.360;9.736;2023-07-31T02:30:08;11.48;;;3.00;;
30647;SDS011;17683;53.360;9.736;2023-07-31T02:32:34;8.48;;;2.67;;
30647;SDS011;17683;53.360;9.736;2023-07-31T02:35:00;14.80;;;3.10;;
30647;SDS011;17683;53.360;9.736;2023-07-31T02:37:25;8.32;;;2.53;;
30647;SDS011;17683;53.360;9.736;2023-07-31T02:39:53;6.72;;;2.72;;
30647;SDS011;17683;53.360;9.736;2023-07-31T02:42:19;8.52;;;2.65;;
30647;SDS011;17683;53.360;9.736;2023-07-31T02:44:45;9.25;;;3.50;;
30647;SDS011;17683;53.360;9.736;2023-07-31T02:47:10;7.63;;;2.83;;
30647;SDS011;17683;53.360;9.736;2023-07-31T02:49:36;9.68;;;2.50;;
30647;SDS011;17683;53.360;9.736;2023-07-31T02:52:02;11.55;;;3.20;;
30647;SDS011;17683;53.360;9.736;2023-07-31T02:54:28;5.32;;;2.42;;
30647;SDS011;17683;53.360;9.736;2023-07-31T02:56:53;10.13;;;3.17;;
30647;SDS011;17683;53.360;9.736;2023-07-31T02:59:19;6.03;;;2.60;;
30647;SDS011;17683;53.360;9.736;2023-07-31T03:01:45;4.05;;;2.55;;
30647;SDS011;17683;53.360;9.736;2023-07-31T03:04:11;10.23;;;3.05;;
30647;SDS011;17683;53.360;9.736;2023-07-31T03:06:37;8.40;;;2.53;;
30647;SDS011;17683;53.360;9.736;2023-07-31T03:09:02;5.68;;;2.67;;
30647;SDS011;17683;53.360;9.736;2023-07-31T03:11:28;14.38;;;4.57;;
30647;SDS011;17683;53.360;9.736;2023-07-31T03:13:54;5.32;;;2.78;;
30647;SDS011;17683;53.360;9.736;2023-07-31T03:16:19;8.68;;;3.47;;
30647;SDS011;17683;53.360;9.736;2023-07-31T03:18:45;4.13;;;2.22;;
30647;SDS011;17683;53.360;9.736;2023-07-31T03:21:11;5.97;;;3.20;;
30647;SDS011;17683;53.360;9.736;2023-07-31T03:23:37;6.53;;;2.90;;
30647;SDS011;17683;53.360;9.736;2023-07-31T03:26:06;6.80;;;3.35;;
30647;SDS011;17683;53.360;9.736;2023-07-31T03:28:33;5.57;;;2.92;;
30647;SDS011;17683;53.360;9.736;2023-07-31T03:30:59;4.57;;;2.88;;
30647;SDS011;17683;53.360;9.736;2023-07-31T03:33:25;9.48;;;3.70;;
30647;SDS011;17683;53.360;9.736;2023-07-31T03:35:51;9.00;;;3.60;;
30647;SDS011;17683;53.360;9.736;2023-07-31T03:38:17;7.15;;;3.40;;
30647;SDS011;17683;53.360;9.736;2023-07-31T03:40:42;5.70;;;3.63;;
30647;SDS011;17683;53.360;9.736;2023-07-31T03:43:08;7.53;;;3.50;;
30647;SDS011;17683;53.360;9.736;2023-07-31T03:45:34;6.45;;;3.50;;
30647;SDS011;17683;53.360;9.736;2023-07-31T03:48:00;5.90;;;3.22;;
30647;SDS011;17683;53.360;9.736;2023-07-31T03:50:26;7.18;;;3.00;;
30647;SDS011;17683;53.360;9.736;2023-07-31T03:52:52;6.18;;;3.80;;
30647;SDS011;17683;53.360;9.736;2023-07-31T03:55:17;6.82;;;3.45;;
30647;SDS011;17683;53.360;9.736;2023-07-31T03:57:43;4.50;;;3.38;;
30647;SDS011;17683;53.360;9.736;2023-07-31T04:00:09;11.05;;;3.67;;
30647;SDS011;17683;53.360;9.736;2023-07-31T04:02:35;4.93;;;3.33;;
30647;SDS011;17683;53.360;9.736;2023-07-31T04:05:01;4.22;;;2.85;;
30647;SDS011;17683;53.360;9.736;2023-07-31T04:07:27;6.63;;;3.47;;
30647;SDS011;17683;53.360;9.736;2023-07-31T04:09:52;6.43;;;3.97;;
30647;SDS011;17683;53.360;9.736;2023-07-31T04:12:18;8.07;;;4.03;;
30647;SDS011;17683;53.360;9.736;2023-07-31T04:14:43;5.85;;;3.92;;
30647;SDS011;17683;53.360;9.736;2023-07-31T04:17:09;4.70;;;4.07;;
30647;SDS011;17683;53.360;9.736;2023-07-31T04:19:35;4.82;;;3.40;;
30647;SDS011;17683;53.360;9.736;2023-07-31T04:22:00;6.82;;;4.47;;
30647;SDS011;17683;53.360;9.736;2023-07-31T04:24:26;4.65;;;3.53;;
30647;SDS011;17683;53.360;9.736;2023-07-31T04:26:52;4.93;;;4.03;;
30647;SDS011;17683;53.360;9.736;2023-07-31T04:29:18;5.05;;;4.32;;
30647;SDS011;17683;53.360;9.736;2023-07-31T04:31:45;5.95;;;4.53;;
30647;SDS011;17683;53.360;9.736;2023-07-31T04:34:10;5.45;;;4.18;;
30647;SDS011;17683;53.360;9.736;2023-07-31T04:36:39;6.40;;;4.38;;
30647;SDS011;17683;53.360;9.736;2023-07-31T04:39:05;4.85;;;3.95;;
30647;SDS011;17683;53.360;9.736;2023-07-31T04:41:30;6.57;;;3.97;;
30647;SDS011;17683;53.360;9.736;2023-07-31T04:43:56;9.10;;;4.47;;
30647;SDS011;17683;53.360;9.736;2023-07-31T04:46:22;6.38;;;4.25;;
30647;SDS011;17683;53.360;9.736;2023-07-31T04:48:47;6.07;;;3.70;;
30647;SDS011;17683;53.360;9.736;2023-07-31T04:51:13;4.85;;;4.35;;
30647;SDS011;17683;53.360;9.736;2023-07-31T04:53:39;4.20;;;3.60;;
30647;SDS011;17683;53.360;9.736;2023-07-31T04:56:04;5.65;;;3.65;;
30647;SDS011;17683;53.360;9.736;2023-07-31T04:58:30;6.70;;;4.15;;
30647;SDS011;17683;53.360;9.736;2023-07-31T05:00:56;4.78;;;4.15;;
30647;SDS011;17683;53.360;9.736;2023-07-31T05:03:21;8.00;;;5.03;;
30647;SDS011;17683;53.360;9.736;2023-07-31T05:05:47;4.93;;;3.38;;
30647;SDS011;17683;53.360;9.736;2023-07-31T05:08:13;4.43;;;4.03;;
30647;SDS011;17683;53.360;9.736;2023-07-31T05:10:39;5.35;;;3.60;;
30647;SDS011;17683;53.360;9.736;2023-07-31T05:13:04;4.47;;;4.07;;
30647;SDS011;17683;53.360;9.736;2023-07-31T05:15:30;7.47;;;4.55;;
30647;SDS011;17683;53.360;9.736;2023-07-31T05:17:56;4.60;;;4.00;;
30647;SDS011;17683;53.360;9.736;2023-07-31T05:20:22;7.20;;;4.63;;
30647;SDS011;17683;53.360;9.736;2023-07-31T05:22:47;6.35;;;4.22;;
30647;SDS011;17683;53.360;9.736;2023-07-31T05:25:13;4.78;;;4.18;;
30647;SDS011;17683;53.360;9.736;2023-07-31T05:27:39;4.55;;;4.15;;
30647;SDS011;17683;53.360;9.736;2023-07-31T05:30:05;4.43;;;3.70;;
30647;SDS011;17683;53.360;9.736;2023-07-31T05:32:31;5.35;;;4.53;;
30647;SDS011;17683;53.360;9.736;2023-07-31T05:34:57;7.82;;;5.20;;
30647;SDS011;17683;53.360;9.736;2023-07-31T05:37:23;8.05;;;4.95;;
30647;SDS011;17683;53.360;9.736;2023-07-31T05:39:49;5.30;;;4.80;;
30647;SDS011;17683;53.360;9.736;2023-07-31T05:42:15;4.75;;;3.95;;
30647;SDS011;17683;53.360;9.736;2023-07-31T05:44:41;5.55;;;3.83;;
30647;SDS011;17683;53.360;9.736;2023-07-31T05:47:07;4.30;;;3.67;;
30647;SDS011;17683;53.360;9.736;2023-07-31T05:49:32;3.95;;;3.55;;
30647;SDS011;17683;53.360;9.736;2023-07-31T05:51:58;6.63;;;4.00;;
30647;SDS011;17683;53.360;9.736;2023-07-31T05:54:24;5.00;;;3.75;;
30647;SDS011;17683;53.360;9.736;2023-07-31T05:56:50;4.32;;;3.75;;
30647;SDS011;17683;53.360;9.736;2023-07-31T05:59:15;3.78;;;3.38;;
30647;SDS011;17683;53.360;9.736;2023-07-31T06:01:41;4.97;;;3.90;;
30647;SDS011;17683;53.360;9.736;2023-07-31T06:04:10;3.53;;;3.05;;
30647;SDS011;17683;53.360;9.736;2023-07-31T06:06:36;4.15;;;3.75;;
30647;SDS011;17683;53.360;9.736;2023-07-31T06:09:01;3.30;;;3.00;;
30647;SDS011;17683;53.360;9.736;2023-07-31T06:11:28;10.60;;;4.00;;
30647;SDS011;17683;53.360;9.736;2023-07-31T06:13:54;5.05;;;3.35;;
30647;SDS011;17683;53.360;9.736;2023-07-31T06:16:20;3.22;;;2.92;;
30647;SDS011;17683;53.360;9.736;2023-07-31T06:18:46;3.38;;;3.08;;
30647;SDS011;17683;53.360;9.736;2023-07-31T06:21:12;3.90;;;3.55;;
30647;SDS011;17683;53.360;9.736;2023-07-31T06:23:38;3.30;;;2.88;;
30647;SDS011;17683;53.360;9.736;2023-07-31T06:26:03;5.00;;;2.88;;
30647;SDS011;17683;53.360;9.736;2023-07-31T06:28:30;3.70;;;3.15;;
30647;SDS011;17683;53.360;9.736;2023-07-31T06:30:57;3.28;;;2.92;;
30647;SDS011;17683;53.360;9.736;2023-07-31T06:33:23;3.28;;;2.45;;
30647;SDS011;17683;53.360;9.736;2023-07-31T06:35:49;2.88;;;2.67;;
30647;SDS011;17683;53.360;9.736;2023-07-31T06:38:14;2.90;;;2.70;;
30647;SDS011;17683;53.360;9.736;2023-07-31T06:40:40;4.93;;;3.13;;
30647;SDS011;17683;53.360;9.736;2023-07-31T06:43:06;4.00;;;2.80;;
30647;SDS011;17683;53.360;9.736;2023-07-31T06:45:34;2.90;;;2.67;;
30647;SDS011;17683;53.360;9.736;2023-07-31T06:48:01;4.55;;;2.25;;
30647;SDS011;17683;53.360;9.736;2023-07-31T06:50:33;2.80;;;2.60;;
30647;SDS011;17683;53.360;9.736;2023-07-31T06:52:58;2.72;;;2.28;;
30647;SDS011;17683;53.360;9.736;2023-07-31T06:55:25;2.97;;;2.67;;
30647;SDS011;17683;53.360;9.736;2023-07-31T06:57:52;2.90;;;2.70;;
30647;SDS011;17683;53.360;9.736;2023-07-31T07:00:19;4.00;;;2.40;;
30647;SDS011;17683;53.360;9.736;2023-07-31T07:02:46;6.43;;;2.17;;
30647;SDS011;17683;53.360;9.736;2023-07-31T07:05:15;3.00;;;2.55;;
30647;SDS011;17683;53.360;9.736;2023-07-31T07:07:42;2.65;;;2.45;;
30647;SDS011;17683;53.360;9.736;2023-07-31T07:10:08;3.60;;;2.78;;
30647;SDS011;17683;53.360;9.736;2023-07-31T07:12:34;2.30;;;2.10;;
30647;SDS011;17683;53.360;9.736;2023-07-31T07:15:00;2.92;;;1.92;;
30647;SDS011;17683;53.360;9.736;2023-07-31T07:17:28;3.20;;;2.60;;
30647;SDS011;17683;53.360;9.736;2023-07-31T07:19:58;2.72;;;2.53;;
30647;SDS011;17683;53.360;9.736;2023-07-31T07:22:24;2.15;;;1.95;;
30647;SDS011;17683;53.360;9.736;2023-07-31T07:24:51;1.98;;;1.65;;
30647;SDS011;17683;53.360;9.736;2023-07-31T07:27:16;1.80;;;1.70;;
30647;SDS011;17683;53.360;9.736;2023-07-31T07:29:42;2.05;;;1.50;;
30647;SDS011;17683;53.360;9.736;2023-07-31T07:32:08;1.90;;;1.60;;
30647;SDS011;17683;53.360;9.736;2023-07-31T07:34:33;1.30;;;1.20;;
30647;SDS011;17683;53.360;9.736;2023-07-31T07:37:00;1.60;;;1.50;;
30647;SDS011;17683;53.360;9.736;2023-07-31T07:39:25;1.52;;;1.42;;
30647;SDS011;17683;53.360;9.736;2023-07-31T07:41:51;1.83;;;1.50;;
30647;SDS011;17683;53.360;9.736;2023-07-31T07:44:18;1.40;;;1.30;;
30647;SDS011;17683;53.360;9.736;2023-07-31T07:46:44;1.20;;;1.10;;
30647;SDS011;17683;53.360;9.736;2023-07-31T07:49:09;1.27;;;1.17;;
30647;SDS011;17683;53.360;9.736;2023-07-31T07:51:35;1.60;;;1.50;;
30647;SDS011;17683;53.360;9.736;2023-07-31T07:54:01;1.00;;;0.90;;
30647;SDS011;17683;53.360;9.736;2023-07-31T07:56:27;3.65;;;2.00;;
30647;SDS011;17683;53.360;9.736;2023-07-31T07:58:54;1.25;;;1.15;;
30647;SDS011;17683;53.360;9.736;2023-07-31T08:01:19;1.95;;;1.20;;
30647;SDS011;17683;53.360;9.736;2023-07-31T08:03:46;0.63;;;0.63;;
30647;SDS011;17683;53.360;9.736;2023-07-31T08:06:13;1.27;;;1.17;;
30647;SDS011;17683;53.360;9.736;2023-07-31T08:08:39;0.95;;;0.90;;
30647;SDS011;17683;53.360;9.736;2023-07-31T08:11:05;1.73;;;1.15;;
30647;SDS011;17683;53.360;9.736;2023-07-31T08:13:30;3.63;;;0.82;;
30647;SDS011;17683;53.360;9.736;2023-07-31T08:15:56;2.53;;;0.90;;
30647;SDS011;17683;53.360;9.736;2023-07-31T08:18:22;0.73;;;0.73;;
30647;SDS011;17683;53.360;9.736;2023-07-31T08:20:48;0.80;;;0.80;;
30647;SDS011;17683;53.360;9.736;2023-07-31T08:23:14;0.70;;;0.70;;
30647;SDS011;17683;53.360;9.736;2023-07-31T08:25:40;0.80;;;0.80;;
30647;SDS011;17683;53.360;9.736;2023-07-31T08:28:05;1.27;;;0.60;;
30647;SDS011;17683;53.360;9.736;2023-07-31T08:30:31;0.77;;;0.77;;
30647;SDS011;17683;53.360;9.736;2023-07-31T08:32:58;0.55;;;0.55;;
30647;SDS011;17683;53.360;9.736;2023-07-31T08:35:25;1.45;;;0.60;;
30647;SDS011;17683;53.360;9.736;2023-07-31T08:37:53;0.73;;;0.30;;
30647;SDS011;17683;53.360;9.736;2023-07-31T08:40:18;0.25;;;0.25;;
30647;SDS011;17683;53.360;9.736;2023-07-31T08:42:45;0.85;;;0.28;;
30647;SDS011;17683;53.360;9.736;2023-07-31T08:45:15;0.43;;;0.43;;
30647;SDS011;17683;53.360;9.736;2023-07-31T08:47:45;0.40;;;0.25;;
30647;SDS011;17683;53.360;9.736;2023-07-31T08:50:13;0.17;;;0.17;;
30647;SDS011;17683;53.360;9.736;2023-07-31T08:52:39;1.58;;;0.50;;
30647;SDS011;17683;53.360;9.736;2023-07-31T08:55:06;0.20;;;0.20;;
30647;SDS011;17683;53.360;9.736;2023-07-31T08:57:32;0.43;;;0.22;;
30647;SDS011;17683;53.360;9.736;2023-07-31T09:00:00;0.10;;;0.10;;
30647;SDS011;17683;53.360;9.736;2023-07-31T09:02:31;0.20;;;0.17;;
30647;SDS011;17683;53.360;9.736;2023-07-31T09:05:04;0.85;;;0.30;;
30647;SDS011;17683;53.360;9.736;2023-07-31T09:07:32;0.45;;;0.40;;
30647;SDS011;17683;53.360;9.736;2023-07-31T09:10:00;0.45;;;0.40;;
30647;SDS011;17683;53.360;9.736;2023-07-31T09:12:26;0.20;;;0.20;;
30647;SDS011;17683;53.360;9.736;2023-07-31T09:14:52;0.93;;;0.38;;
30647;SDS011;17683;53.360;9.736;2023-07-31T09:17:28;1.10;;;0.80;;
30647;SDS011;17683;53.360;9.736;2023-07-31T09:19:55;1.42;;;0.80;;
30647;SDS011;17683;53.360;9.736;2023-07-31T09:22:34;2.60;;;1.45;;
30647;SDS011;17683;53.360;9.736;2023-07-31T09:25:30;4.53;;;1.92;;
30647;SDS011;17683;53.360;9.736;2023-07-31T09:28:08;5.60;;;2.88;;
30647;SDS011;17683;53.360;9.736;2023-07-31T09:33:32;9.57;;;4.30;;
30647;SDS011;17683;53.360;9.736;2023-07-31T09:35:58;12.85;;;6.10;;
30647;SDS011;17683;53.360;9.736;2023-07-31T09:38:29;12.82;;;6.50;;
30647;SDS011;17683;53.360;9.736;2023-07-31T09:40:56;14.20;;;5.95;;
30647;SDS011;17683;53.360;9.736;2023-07-31T09:43:26;14.32;;;7.10;;
30647;SDS011;17683;53.360;9.736;2023-07-31T09:45:56;16.00;;;8.75;;
30647;SDS011;17683;53.360;9.736;2023-07-31T09:48:23;11.30;;;7.18;;
30647;SDS011;17683;53.360;9.736;2023-07-31T09:50:51;12.88;;;7.32;;
30647;SDS011;17683;53.360;9.736;2023-07-31T09:53:17;16.08;;;7.82;;
30647;SDS011;17683;53.360;9.736;2023-07-31T09:55:43;14.32;;;7.80;;
30647;SDS011;17683;53.360;9.736;2023-07-31T09:58:10;16.77;;;8.45;;
30647;SDS011;17683;53.360;9.736;2023-07-31T10:00:37;17.00;;;8.90;;
30647;SDS011;17683;53.360;9.736;2023-07-31T10:03:07;17.80;;;9.48;;
30647;SDS011;17683;53.360;9.736;2023-07-31T10:05:35;18.98;;;9.07;;
30647;SDS011;17683;53.360;9.736;2023-07-31T10:08:03;19.17;;;9.63;;
30647;SDS011;17683;53.360;9.736;2023-07-31T10:10:29;19.23;;;10.23;;
30647;SDS011;17683;53.360;9.736;2023-07-31T10:12:56;18.35;;;9.13;;
30647;SDS011;17683;53.360;9.736;2023-07-31T10:15:22;20.70;;;9.65;;
30647;SDS011;17683;53.360;9.736;2023-07-31T10:17:49;20.90;;;10.75;;
30647;SDS011;17683;53.360;9.736;2023-07-31T10:20:16;21.45;;;10.00;;
30647;SDS011;17683;53.360;9.736;2023-07-31T10:22:43;17.13;;;9.52;;
30647;SDS011;17683;53.360;9.736;2023-07-31T10:25:11;18.75;;;9.30;;
30647;SDS011;17683;53.360;9.736;2023-07-31T10:27:38;20.27;;;10.40;;
30647;SDS011;17683;53.360;9.736;2023-07-31T10:30:05;19.90;;;8.70;;
30647;SDS011;17683;53.360;9.736;2023-07-31T10:32:33;13.32;;;7.97;;
30647;SDS011;17683;53.360;9.736;2023-07-31T10:35:01;16.80;;;8.65;;
30647;SDS011;17683;53.360;9.736;2023-07-31T10:37:29;17.15;;;8.70;;
30647;SDS011;17683;53.360;9.736;2023-07-31T10:40:05;16.95;;;8.23;;
30647;SDS011;17683;53.360;9.736;2023-07-31T10:42:54;16.40;;;8.68;;
30647;SDS011;17683;53.360;9.736;2023-07-31T10:45:30;13.20;;;7.07;;
30647;SDS011;17683;53.360;9.736;2023-07-31T10:50:29;9.32;;;6.70;;
30647;SDS011;17683;53.360;9.736;2023-07-31T10:52:57;14.73;;;7.65;;
30647;SDS011;17683;53.360;9.736;2023-07-31T10:57:54;11.93;;;6.35;;
30647;SDS011;17683;53.360;9.736;2023-07-31T11:00:28;9.95;;;6.55;;
30647;SDS011;17683;53.360;9.736;2023-07-31T11:03:01;13.13;;;6.53;;
30647;SDS011;17683;53.360;9.736;2023-07-31T11:05:50;10.57;;;6.22;;
30647;SDS011;17683;53.360;9.736;2023-07-31T11:10:44;9.55;;;6.00;;
30647;SDS011;17683;53.360;9.736;2023-07-31T11:13:11;8.95;;;5.75;;
30647;SDS011;17683;53.360;9.736;2023-07-31T11:15:37;9.50;;;5.50;;
30647;SDS011;17683;53.360;9.736;2023-07-31T11:18:03;8.90;;;5.38;;
30647;SDS011;17683;53.360;9.736;2023-07-31T11:20:30;7.85;;;4.57;;
30647;SDS011;17683;53.360;9.736;2023-07-31T11:23:04;5.45;;;4.65;;
30647;SDS011;17683;53.360;9.736;2023-07-31T11:25:32;7.78;;;4.88;;
30647;SDS011;17683;53.360;9.736;2023-07-31T11:30:30;7.97;;;4.57;;
30647;SDS011;17683;53.360;9.736;2023-07-31T11:32:56;5.47;;;3.72;;
30647;SDS011;17683;53.360;9.736;2023-07-31T11:35:22;5.38;;;3.47;;
30647;SDS011;17683;53.360;9.736;2023-07-31T11:37:48;6.68;;;4.00;;
30647;SDS011;17683;53.360;9.736;2023-07-31T11:40:14;4.50;;;3.72;;
30647;SDS011;17683;53.360;9.736;2023-07-31T11:42:40;3.65;;;3.00;;
30647;SDS011;17683;53.360;9.736;2023-07-31T11:45:06;6.20;;;3.33;;
30647;SDS011;17683;53.360;9.736;2023-07-31T11:47:33;5.35;;;3.38;;
30647;SDS011;17683;53.360;9.736;2023-07-31T11:50:00;4.45;;;2.72;;
30647;SDS011;17683;53.360;9.736;2023-07-31T11:52:27;4.68;;;3.03;;
30647;SDS011;17683;53.360;9.736;2023-07-31T11:54:55;4.60;;;2.15;;
30647;SDS011;17683;53.360;9.736;2023-07-31T11:57:21;3.88;;;2.25;;
30647;SDS011;17683;53.360;9.736;2023-07-31T11:59:48;3.30;;;2.53;;
30647;SDS011;17683;53.360;9.736;2023-07-31T12:02:14;5.95;;;2.33;;
30647;SDS011;17683;53.360;9.736;2023-07-31T12:04:41;5.85;;;2.20;;
30647;SDS011;17683;53.360;9.736;2023-07-31T12:07:07;5.63;;;2.25;;
30647;SDS011;17683;53.360;9.736;2023-07-31T12:09:33;3.72;;;2.10;;
30647;SDS011;17683;53.360;9.736;2023-07-31T12:11:58;4.03;;;1.92;;
30647;SDS011;17683;53.360;9.736;2023-07-31T12:14:25;2.55;;;2.00;;
30647;SDS011;17683;53.360;9.736;2023-07-31T12:16:57;2.70;;;1.90;;
30647;SDS011;17683;53.360;9.736;2023-07-31T12:19:25;1.77;;;1.50;;
30647;SDS011;17683;53.360;9.736;2023-07-31T12:21:55;2.25;;;1.60;;
30647;SDS011;17683;53.360;9.736;2023-07-31T12:24:21;3.00;;;1.48;;
30647;SDS011;17683;53.360;9.736;2023-07-31T12:26:47;2.42;;;1.40;;
30647;SDS011;17683;53.360;9.736;2023-07-31T12:29:13;1.77;;;1.20;;
30647;SDS011;17683;53.360;9.736;2023-07-31T12:31:40;1.27;;;1.17;;
30647;SDS011;17683;53.360;9.736;2023-07-31T12:34:14;1.58;;;1.38;;
30647;SDS011;17683;53.360;9.736;2023-07-31T12:36:42;2.67;;;1.27;;
30647;SDS011;17683;53.360;9.736;2023-07-31T12:39:08;1.40;;;1.15;;
30647;SDS011;17683;53.360;9.736;2023-07-31T12:41:34;1.58;;;1.05;;
30647;SDS011;17683;53.360;9.736;2023-07-31T12:43:59;2.05;;;1.25;;
30647;SDS011;17683;53.360;9.736;2023-07-31T12:46:25;1.95;;;1.60;;
30647;SDS011;17683;53.360;9.736;2023-07-31T12:48:51;1.85;;;1.40;;
30647;SDS011;17683;53.360;9.736;2023-07-31T12:51:16;1.88;;;0.75;;
30647;SDS011;17683;53.360;9.736;2023-07-31T12:53:42;1.90;;;1.30;;
30647;SDS011;17683;53.360;9.736;2023-07-31T12:56:08;1.58;;;1.10;;
30647;SDS011;17683;53.360;9.736;2023-07-31T12:58:33;2.50;;;1.70;;
30647;SDS011;17683;53.360;9.736;2023-07-31T13:00:59;2.80;;;1.13;;
30647;SDS011;17683;53.360;9.736;2023-07-31T13:03:25;2.00;;;1.20;;
30647;SDS011;17683;53.360;9.736;2023-07-31T13:05:50;0.95;;;0.93;;
30647;SDS011;17683;53.360;9.736;2023-07-31T13:08:17;1.65;;;1.02;;
30647;SDS011;17683;53.360;9.736;2023-07-31T13:10:43;1.02;;;0.95;;
30647;SDS011;17683;53.360;9.736;2023-07-31T13:13:09;2.67;;;1.23;;
30647;SDS011;17683;53.360;9.736;2023-07-31T13:15:35;1.83;;;0.70;;
30647;SDS011;17683;53.360;9.736;2023-07-31T13:18:00;0.93;;;0.73;;
30647;SDS011;17683;53.360;9.736;2023-07-31T13:20:26;0.93;;;0.75;;
30647;SDS011;17683;53.360;9.736;2023-07-31T13:22:52;1.00;;;0.90;;
30647;SDS011;17683;53.360;9.736;2023-07-31T13:25:18;0.88;;;0.75;;
30647;SDS011;17683;53.360;9.736;2023-07-31T13:27:43;0.75;;;0.75;;
30647;SDS011;17683;53.360;9.736;2023-07-31T13:30:09;0.77;;;0.77;;
30647;SDS011;17683;53.360;9.736;2023-07-31T13:32:35;1.60;;;0.80;;
30647;SDS011;17683;53.360;9.736;2023-07-31T13:35:07;1.08;;;0.98;;
30647;SDS011;17683;53.360;9.736;2023-07-31T13:37:33;1.95;;;0.47;;
30647;SDS011;17683;53.360;9.736;2023-07-31T13:39:59;0.60;;;0.60;;
30647;SDS011;17683;53.360;9.736;2023-07-31T13:42:25;1.45;;;0.70;;
30647;SDS011;17683;53.360;9.736;2023-07-31T13:44:52;0.70;;;0.70;;
30647;SDS011;17683;53.360;9.736;2023-07-31T13:47:17;0.80;;;0.70;;
30647;SDS011;17683;53.360;9.736;2023-07-31T13:49:43;0.80;;;0.80;;
30647;SDS011;17683;53.360;9.736;2023-07-31T13:52:09;0.95;;;0.90;;
30647;SDS011;17683;53.360;9.736;2023-07-31T13:54:35;0.88;;;0.40;;
30647;SDS011;17683;53.360;9.736;2023-07-31T13:57:00;0.85;;;0.77;;
30647;SDS011;17683;53.360;9.736;2023-07-31T13:59:26;1.05;;;0.60;;
30647;SDS011;17683;53.360;9.736;2023-07-31T14:01:52;1.02;;;0.85;;
30647;SDS011;17683;53.360;9.736;2023-07-31T14:04:17;1.30;;;1.20;;
30647;SDS011;17683;53.360;9.736;2023-07-31T14:06:44;2.40;;;0.98;;
30647;SDS011;17683;53.360;9.736;2023-07-31T14:09:09;1.73;;;1.10;;
30647;SDS011;17683;53.360;9.736;2023-07-31T14:11:35;3.85;;;2.10;;
30647;SDS011;17683;53.360;9.736;2023-07-31T14:14:01;3.08;;;1.50;;
30647;SDS011;17683;53.360;9.736;2023-07-31T14:16:27;3.40;;;1.50;;
30647;SDS011;17683;53.360;9.736;2023-07-31T14:18:53;1.30;;;1.20;;
30647;SDS011;17683;53.360;9.736;2023-07-31T14:21:19;1.40;;;1.30;;
30647;SDS011;17683;53.360;9.736;2023-07-31T14:23:45;2.50;;;1.83;;
30647;SDS011;17683;53.360;9.736;2023-07-31T14:26:11;2.85;;;1.90;;
30647;SDS011;17683;53.360;9.736;2023-07-31T14:28:37;2.78;;;1.77;;
30647;SDS011;17683;53.360;9.736;2023-07-31T14:31:03;2.50;;;1.98;;
30647;SDS011;17683;53.360;9.736;2023-07-31T14:33:28;4.20;;;2.50;;
30647;SDS011;17683;53.360;9.736;2023-07-31T14:35:54;3.30;;;2.40;;
30647;SDS011;17683;53.360;9.736;2023-07-31T14:38:20;2.88;;;2.58;;
30647;SDS011;17683;53.360;9.736;2023-07-31T14:40:46;2.85;;;2.58;;
30647;SDS011;17683;53.360;9.736;2023-07-31T14:43:11;2.90;;;2.30;;
30647;SDS011;17683;53.360;9.736;2023-07-31T14:45:37;2.35;;;2.15;;
30647;SDS011;17683;53.360;9.736;2023-07-31T14:48:03;3.13;;;2.00;;
30647;SDS011;17683;53.360;9.736;2023-07-31T14:50:28;3.67;;;2.65;;
30647;SDS011;17683;53.360;9.736;2023-07-31T14:52:54;4.53;;;2.78;;
30647;SDS011;17683;53.360;9.736;2023-07-31T14:55:20;2.60;;;2.40;;
30647;SDS011;17683;53.360;9.736;2023-07-31T14:57:46;4.72;;;2.80;;
30647;SDS011;17683;53.360;9.736;2023-07-31T15:00:12;3.55;;;2.80;;
30647;SDS011;17683;53.360;9.736;2023-07-31T15:02:38;3.35;;;3.05;;
30647;SDS011;17683;53.360;9.736;2023-07-31T15:05:03;2.60;;;2.40;;
30647;SDS011;17683;53.360;9.736;2023-07-31T15:07:29;3.28;;;2.97;;